メインページ
METAR-TAF:

METAR-TAF

空港 :

北宇都宮駐屯地

宇都宮, 日本

緯度: 36-31N, 経度: 139-52E, 海抜: 102m

現時点の気象観測

当レポートは6時間39分前の05:25(UTC)に作成
北/北東の風 6kt
気温 22°C
湿度 21%
気圧 1018 hPa
視程10km以上
高度3000ftの雲はほとんどない

METAR: RJTU 200525Z 02006KT 9999 FEW030 22/M01 Q1018 RMK 1CU030 A3008

時間: 21:04 (12:04 UTC)


TAF: 見つかりません

4,000以上の空港の気象観測と天気予報(METAR報とTAF報)

利用可能な観測所は地図上に黄色い丸と赤い丸で示す。

丸の上にカーソルを重ねると観測所名を参照できる。

次にクリックすると気象観測と天気予報を参照できる。

マップの切り替え:黒色「×」印の緑ボタンをクリックして拡大、「-」印の緑ボタンをクリックして縮小、緑色の三角印をクリックして隣りの地図に切り替え


METAR-TAF: